Dell City, Texas
Current Conditions -  °F | °C
As of 3:20 PM on Friday 31 Oct 2014 (Local Time) from KGDP Reporting Station
Clear Clear  
Wind Chill: 59°   Ceiling: Unl
Heat Index: 59°   Visibility: 10mi
Dew Point: 34°   Wind: 29mph
Humidity: 39%   Direction: 70°ENE
Pressure: 30.34"   Gusts: 38mph
Location:  31.94°N, 105.2°W
Report Text: KGDP 312120Z AUTO 07025G33KT 10SM CLR 15/01 A3034 RMK AO2 PK WND 08033/2114 T01500011
Loading
Personal Weather Stations






























Interactive Weather Map New forecast layout! Learn more

10-Day Weather Forecast

Advertisements
Track Severe Weather on mobile